Time;durP1;ratioP1;P1;durP2;ratioP2;P2;SDS_P1;SDS_P2;PMS_P1;PMS_P2;Temp;Humidity;BMP_temperature;BMP_pressure;BME280_temperature;BME280_humidity;BME280_pressure;Samples;Min_cycle;Max_cycle;Signal;HPM_P1;HPM_P2
2022/06/12 00:03:55;;;;;;;9.50;4.53;;;;;;;23.03;54.00;99631.61;4394026;79;28529;-81
2022/06/12 00:09:57;;;;;;;8.28;4.03;;;;;;;23.07;54.09;99640.05;4392039;79;28516;-80
2022/06/12 00:15:58;;;;;;;7.10;3.87;;;;;;;22.79;54.74;99636.66;4402855;80;28511;-80
2022/06/12 00:22:00;;;;;;;4.70;3.80;;;;;;;22.53;55.75;99628.02;4374595;80;28503;-80
2022/06/12 00:28:03;;;;;;;7.55;5.03;;;;;;;22.56;54.74;99628.25;4375301;80;28505;-81
2022/06/12 00:34:05;;;;;;;7.80;4.75;;;;;;;22.67;55.36;99627.52;4366916;80;28542;-80
2022/06/12 00:40:07;;;;;;;8.48;4.60;;;;;;;22.64;54.69;99620.45;4371923;80;28551;-81
2022/06/12 00:46:47;;;;;;;7.08;4.47;;;;;;;22.63;54.64;99626.50;4371940;80;28506;-81
2022/06/12 00:52:51;;;;;;;7.75;4.42;;;;;;;22.52;55.07;99620.92;4362588;80;28464;-80
2022/06/12 00:58:59;;;;;;;7.67;4.80;;;;;;;22.40;55.34;99610.36;4379701;80;28496;-81
2022/06/12 01:11:23;;;;;;;7.53;4.53;;;;;;;22.07;56.11;99608.34;4376175;80;28499;-80
2022/06/12 01:17:27;;;;;;;7.65;4.42;;;;;;;22.10;55.61;99604.20;4385256;80;28591;-81
2022/06/12 01:24:12;;;;;;;7.58;4.60;;;;;;;22.05;55.71;99600.98;4372601;81;28458;-81
2022/06/12 01:30:34;;;;;;;5.67;4.05;;;;;;;21.94;56.49;99606.33;4413882;79;28543;-80
2022/06/12 01:37:09;;;;;;;6.05;4.22;;;;;;;21.65;57.40;99592.14;4376100;80;28500;-80
2022/06/12 01:43:27;;;;;;;4.95;4.08;;;;;;;21.72;56.32;99595.38;4322346;80;28511;-81
2022/06/12 01:49:40;;;;;;;8.53;4.45;;;;;;;21.70;56.93;99590.76;4382196;80;28552;-81
2022/06/12 01:56:08;;;;;;;6.95;4.53;;;;;;;21.67;56.03;99596.25;4373215;80;28623;-81
2022/06/12 02:02:18;;;;;;;4.70;3.80;;;;;;;21.32;59.07;99592.80;4405189;79;28565;-82
2022/06/12 02:08:24;;;;;;;7.20;4.37;;;;;;;21.48;57.12;99583.88;4391713;80;28474;-81
2022/06/12 02:14:28;;;;;;;;;;;;;;;21.61;56.42;99593.31;4374027;80;28513;-82
2022/06/12 02:20:34;;;;;;;6.37;4.42;;;;;;;21.26;58.33;99606.25;4430672;79;20212;-81
2022/06/12 02:26:57;;;;;;;7.58;4.15;;;;;;;21.09;57.84;99604.78;4264104;82;28499;-82
2022/06/12 02:33:01;;;;;;;6.33;4.35;;;;;;;21.24;57.60;99600.25;4299511;81;28632;-80
2022/06/12 02:39:25;;;;;;;5.85;4.10;;;;;;;21.44;57.96;99604.14;4396294;79;28468;-81
2022/06/12 02:45:35;;;;;;;6.03;4.30;;;;;;;21.22;57.19;99605.20;4409579;79;28540;-80
2022/06/12 02:51:47;;;;;;;7.62;4.55;;;;;;;21.24;56.93;99601.62;4398033;79;28518;-80
2022/06/12 02:58:21;;;;;;;9.40;4.45;;;;;;;21.36;57.42;99606.70;4366142;79;28487;-79
2022/06/12 03:04:28;;;;;;;7.00;4.33;;;;;;;21.51;55.88;99598.89;4402040;79;28530;-80
2022/06/12 03:10:34;;;;;;;6.55;4.40;;;;;;;21.53;56.62;99602.15;4383624;79;28456;-80
2022/06/12 03:16:40;;;;;;;6.17;4.55;;;;;;;21.93;55.41;99604.70;4408599;79;28543;-79
2022/06/12 03:22:46;;;;;;;7.28;4.83;;;;;;;22.13;54.56;99607.75;4336768;81;28508;-80
2022/06/12 03:29:19;;;;;;;7.60;5.10;;;;;;;22.34;53.93;99608.83;4323877;81;28522;-80
2022/06/12 03:36:03;;;;;;;6.50;4.17;;;;;;;22.46;53.73;99608.37;4315093;81;28475;-81
2022/06/12 03:42:18;;;;;;;8.03;4.55;;;;;;;22.72;54.12;99614.87;4408495;79;28555;-80
2022/06/12 03:48:38;;;;;;;7.30;4.90;;;;;;;23.00;54.20;99614.94;4402683;79;28472;-80
2022/06/12 03:54:45;;;;;;;6.35;4.42;;;;;;;23.24;53.90;99622.48;4405591;79;28471;-82
2022/06/12 04:00:49;;;;;;;8.15;5.08;;;;;;;23.48;53.60;99627.01;4391616;79;28544;-82
2022/06/12 04:06:54;;;;;;;8.65;5.25;;;;;;;23.62;54.21;99612.47;4399996;79;28437;-81
2022/06/12 04:12:57;;;;;;;8.55;4.70;;;;;;;23.83;54.27;99623.04;4384077;81;28470;-81
2022/06/12 04:19:02;;;;;;;7.55;4.40;;;;;;;24.07;53.99;99616.81;4347493;79;28535;-81
2022/06/12 04:25:35;;;;;;;8.98;5.20;;;;;;;24.41;54.09;99627.61;4382479;80;28520;-80
2022/06/12 04:31:38;;;;;;;7.75;5.35;;;;;;;24.63;53.14;99629.59;4351200;81;28511;-82
2022/06/12 04:37:39;;;;;;;8.25;5.12;;;;;;;24.86;51.85;99632.37;4361549;80;28523;-81
2022/06/12 04:43:40;;;;;;;7.28;4.78;;;;;;;25.02;50.74;99632.22;4373423;81;28513;-77
2022/06/12 04:49:41;;;;;;;6.15;4.80;;;;;;;25.22;50.06;99644.41;4231494;83;28480;-78
2022/06/12 04:55:43;;;;;;;9.40;4.80;;;;;;;25.37;48.92;99647.32;4229651;83;28483;-77
2022/06/12 05:01:46;;;;;;;7.28;4.35;;;;;;;25.54;48.75;99652.92;4228355;83;28531;-77
2022/06/12 05:07:47;;;;;;;6.67;4.53;;;;;;;25.76;48.90;99647.09;4234549;83;28538;-78
2022/06/12 05:13:49;;;;;;;8.35;4.85;;;;;;;25.91;49.21;99641.71;4303835;81;28480;-83
2022/06/12 05:19:51;;;;;;;8.63;5.08;;;;;;;26.17;47.39;99644.52;4240842;82;28468;-77
2022/06/12 05:25:53;;;;;;;8.35;5.35;;;;;;;26.23;47.80;99645.79;4340932;81;28514;-81
2022/06/12 05:31:56;;;;;;;8.95;4.80;;;;;;;26.24;47.84;99646.03;4407943;79;28547;-79
2022/06/12 05:38:00;;;;;;;8.38;5.00;;;;;;;26.31;46.81;99647.17;4389285;80;28581;-81
2022/06/12 05:44:01;;;;;;;7.33;4.97;;;;;;;26.50;47.12;99645.23;4402540;79;28545;-79
2022/06/12 05:50:02;;;;;;;6.45;4.67;;;;;;;26.57;47.86;99652.45;4387178;80;28767;-81
2022/06/12 05:56:12;;;;;;;7.40;5.00;;;;;;;26.84;46.82;99655.45;4381392;79;28566;-78
2022/06/12 06:02:13;;;;;;;5.85;4.45;;;;;;;27.04;46.89;99654.56;4405122;79;28568;-83
2022/06/12 06:08:16;;;;;;;6.20;4.55;;;;;;;27.09;48.02;99652.20;4386394;79;28491;-85
2022/06/12 06:14:20;;;;;;;5.40;4.60;;;;;;;27.30;46.43;99657.84;4398873;80;28562;-82
2022/06/12 06:20:30;;;;;;;7.35;4.42;;;;;;;27.33;45.54;99657.73;4391467;79;28521;-84
2022/06/12 06:26:31;;;;;;;7.45;4.78;;;;;;;27.60;46.36;99655.73;4229497;83;28528;-88
2022/06/12 06:32:36;;;;;;;6.75;4.67;;;;;;;27.66;45.54;99659.36;4207769;83;28532;-82
2022/06/12 06:38:38;;;;;;;5.12;4.03;;;;;;;28.56;42.64;99651.60;4304595;83;28534;-84
2022/06/12 06:51:05;;;;;;;4.55;3.25;;;;;;;28.94;40.89;99651.20;4200991;83;28472;-83
2022/06/12 06:57:09;;;;;;;4.65;3.40;;;;;;;28.22;40.80;99648.78;4241488;83;28546;-83
2022/06/12 07:03:14;;;;;;;4.87;3.45;;;;;;;28.25;43.11;99648.66;4211336;83;28529;-82
2022/06/12 07:09:16;;;;;;;7.90;4.42;;;;;;;28.61;43.26;99647.27;4203413;83;28497;-82
2022/06/12 07:15:20;;;;;;;4.62;3.60;;;;;;;28.77;42.42;99650.22;4306444;81;28524;-76
2022/06/12 07:21:21;;;;;;;3.80;3.02;;;;;;;28.99;40.80;99651.02;4337703;81;28500;-78
2022/06/12 07:27:23;;;;;;;5.12;3.27;;;;;;;28.23;40.82;99646.81;4333991;81;28549;-79
2022/06/12 07:33:25;;;;;;;4.67;3.30;;;;;;;28.66;39.60;99639.33;4308736;81;28533;-80
2022/06/12 07:39:30;;;;;;;4.33;3.00;;;;;;;29.29;38.93;99635.63;4403835;79;28545;-80
2022/06/12 07:45:36;;;;;;;4.40;2.70;;;;;;;29.34;38.93;99634.60;4377857;81;28480;-79
2022/06/12 07:51:38;;;;;;;6.15;3.47;;;;;;;29.41;37.43;99638.98;4389152;81;28487;-81
2022/06/12 07:57:39;;;;;;;4.65;2.98;;;;;;;29.42;37.04;99633.70;4373016;81;28444;-79
2022/06/12 08:03:41;;;;;;;3.75;3.00;;;;;;;29.35;36.90;99624.55;4386163;81;28467;-80
2022/06/12 08:09:42;;;;;;;4.25;2.90;;;;;;;29.95;36.72;99627.49;4368659;81;28566;-79
2022/06/12 08:15:49;;;;;;;4.75;2.90;;;;;;;30.10;36.28;99612.70;4372307;81;28487;-79
2022/06/12 08:21:52;;;;;;;;;;;;;;;30.00;36.31;99610.61;4393453;80;28496;-79
2022/06/12 08:27:58;;;;;;;5.97;2.85;;;;;;;30.36;35.22;99599.02;4368981;80;20193;-80
2022/06/12 08:34:22;;;;;;;4.95;2.80;;;;;;;30.68;36.05;99600.54;4298608;82;28584;-80
2022/06/12 08:40:42;;;;;;;4.28;3.10;;;;;;;30.79;35.92;99589.16;4233951;84;28548;-80
2022/06/12 08:47:03;;;;;;;4.42;2.98;;;;;;;31.00;35.67;99590.88;4253628;82;28536;-82
2022/06/12 08:53:17;;;;;;;3.42;3.08;;;;;;;31.04;34.73;99589.59;4297635;82;28502;-80
2022/06/12 08:59:51;;;;;;;4.80;2.77;;;;;;;31.16;35.12;99585.34;4380592;81;28550;-80
2022/06/12 09:06:33;;;;;;;4.30;2.70;;;;;;;31.13;34.89;99586.86;4368081;81;28500;-81
2022/06/12 09:12:51;;;;;;;3.35;2.42;;;;;;;31.01;33.56;99578.61;4373026;81;28538;-80
2022/06/12 09:19:34;;;;;;;2.77;2.50;;;;;;;31.12;32.74;99582.47;4302223;81;28571;-80
2022/06/12 09:26:16;;;;;;;2.55;2.33;;;;;;;31.72;32.69;99565.45;4406967;81;28478;-80
2022/06/12 09:32:31;;;;;;;3.98;2.47;;;;;;;31.73;33.13;99564.89;4359352;81;28487;-81
2022/06/12 09:39:01;;;;;;;2.77;2.30;;;;;;;32.11;31.23;99553.61;4336601;81;28535;-81
2022/06/12 09:45:17;;;;;;;3.20;2.70;;;;;;;32.05;31.59;99553.09;4240664;83;28518;-81
2022/06/12 09:51:46;;;;;;;3.58;2.27;;;;;;;32.01;31.82;99536.12;4329430;81;28548;-78
2022/06/12 09:57:53;;;;;;;3.15;2.33;;;;;;;32.54;30.27;99535.63;4357892;81;28548;-81
2022/06/12 10:04:21;;;;;;;3.50;1.90;;;;;;;32.55;30.13;99528.87;4305913;81;28573;-80
2022/06/12 10:10:39;;;;;;;3.12;1.60;;;;;;;32.52;30.03;99525.45;4322081;81;28532;-81
2022/06/12 10:17:00;;;;;;;2.10;1.65;;;;;;;33.13;29.82;99519.36;4327562;81;28479;-81
2022/06/12 10:23:01;;;;;;;3.98;2.10;;;;;;;33.15;29.93;99521.17;4336465;81;28493;-81
2022/06/12 10:29:10;;;;;;;2.27;1.87;;;;;;;33.63;29.72;99512.36;4317947;82;28506;-81
2022/06/12 10:35:22;;;;;;;2.62;1.98;;;;;;;33.62;28.65;99502.39;4281174;82;28486;-81
2022/06/12 10:41:28;;;;;;;2.75;1.70;;;;;;;33.83;29.01;99498.29;4338140;81;28514;-80
2022/06/12 10:47:32;;;;;;;2.47;1.50;;;;;;;33.52;28.12;99505.27;4400383;79;28593;-81
2022/06/12 10:53:36;;;;;;;2.83;1.45;;;;;;;33.46;27.57;99492.24;4252519;82;28587;-81
2022/06/12 10:59:52;;;;;;;2.20;1.82;;;;;;;33.45;27.21;99489.80;4369240;80;28539;-84
2022/06/12 11:06:17;;;;;;;2.47;1.60;;;;;;;33.73;28.36;99478.25;4362094;79;28530;-82
2022/06/12 11:12:43;;;;;;;3.77;1.67;;;;;;;34.08;27.95;99474.14;4418846;79;28508;-85
2022/06/12 11:18:59;;;;;;;3.45;1.80;;;;;;;33.98;28.48;99468.59;4283997;81;28592;-86
2022/06/12 11:25:33;;;;;;;2.77;1.50;;;;;;;33.86;28.85;99469.67;4311293;81;28499;-86
2022/06/12 11:31:46;;;;;;;2.15;1.50;;;;;;;33.74;29.02;99459.55;4296531;81;28461;-84
2022/06/12 11:38:24;;;;;;;1.55;1.27;;;;;;;33.92;27.17;99459.19;4319863;81;28480;-85
2022/06/12 11:44:34;;;;;;;3.02;1.30;;;;;;;34.16;26.84;99454.30;4318686;81;28548;-81
2022/06/12 11:50:41;;;;;;;2.85;1.70;;;;;;;33.81;27.40;99450.47;4336846;81;28593;-83
2022/06/12 11:57:10;;;;;;;3.27;1.72;;;;;;;33.69;27.96;99434.21;4308717;81;28553;-80
2022/06/12 12:03:51;;;;;;;2.27;1.70;;;;;;;33.88;27.78;99434.63;4323561;81;28481;-83
2022/06/12 12:10:18;;;;;;;3.65;2.02;;;;;;;33.86;28.24;99430.03;4389549;79;28545;-83
2022/06/12 12:16:43;;;;;;;3.27;1.80;;;;;;;33.99;28.07;99423.64;4405379;79;28471;-79
2022/06/12 12:23:20;;;;;;;2.75;1.80;;;;;;;33.98;28.45;99412.82;4362891;80;28476;-81
2022/06/12 12:29:27;;;;;;;2.12;1.40;;;;;;;34.11;27.87;99398.05;4344334;80;28542;-82
2022/06/12 12:41:47;;;;;;;1.75;1.40;;;;;;;33.53;28.07;99402.36;4314210;80;28541;-80
2022/06/12 12:48:09;;;;;;;1.42;1.27;;;;;;;35.26;25.82;99395.41;4349412;80;28492;-81
2022/06/12 12:54:18;;;;;;;1.57;1.10;;;;;;;35.40;25.93;99391.86;4331843;80;28556;-81
2022/06/12 13:00:25;;;;;;;1.98;1.47;;;;;;;35.81;25.16;99385.85;4324219;81;28502;-81
2022/06/12 13:06:41;;;;;;;2.27;1.40;;;;;;;35.64;26.94;99379.83;4349473;80;28500;-81
2022/06/12 13:13:11;;;;;;;3.22;1.50;;;;;;;35.85;25.38;99378.29;4232785;83;28516;-80
2022/06/12 13:19:27;;;;;;;1.80;1.50;;;;;;;35.53;25.59;99371.36;4349437;80;28464;-80
2022/06/12 13:25:46;;;;;;;3.63;1.63;;;;;;;36.12;24.61;99360.58;4394990;79;28592;-80
2022/06/12 13:32:07;;;;;;;3.33;1.35;;;;;;;36.33;26.67;99353.39;4394286;79;28454;-81
2022/06/12 13:38:26;;;;;;;1.90;1.30;;;;;;;36.51;25.87;99352.59;4394747;80;28505;-81
2022/06/12 13:44:36;;;;;;;3.08;1.50;;;;;;;36.68;25.67;99342.61;4380232;80;28521;-80
2022/06/12 13:50:44;;;;;;;1.27;1.17;;;;;;;36.24;24.24;99349.60;4396698;79;28565;-82
2022/06/12 13:56:49;;;;;;;1.32;1.20;;;;;;;36.89;24.68;99335.36;4350885;80;28482;-81
2022/06/12 14:02:50;;;;;;;2.80;1.35;;;;;;;36.61;24.42;99333.62;4419925;79;28474;-80
2022/06/12 14:09:11;;;;;;;3.25;1.75;;;;;;;36.23;25.92;99329.79;4391977;80;28560;-80
2022/06/12 14:15:33;;;;;;;1.95;1.30;;;;;;;36.09;25.17;99326.41;4414640;79;28495;-81
2022/06/12 14:21:41;;;;;;;2.47;1.22;;;;;;;36.04;25.63;99321.78;4393491;80;28545;-81
2022/06/12 14:28:06;;;;;;;2.70;1.40;;;;;;;36.47;25.62;99316.79;4368373;80;28565;-85
2022/06/12 14:34:25;;;;;;;1.87;1.32;;;;;;;36.80;25.50;99317.55;4350823;81;28562;-80
2022/06/12 14:40:40;;;;;;;1.42;1.02;;;;;;;36.62;24.67;99308.61;4347652;80;28937;-81
2022/06/12 14:46:42;;;;;;;2.75;1.50;;;;;;;37.04;23.62;99303.90;4357055;80;28596;-79
2022/06/12 14:52:44;;;;;;;8.18;1.42;;;;;;;37.46;24.03;99300.73;4358713;80;28541;-80
2022/06/12 14:58:45;;;;;;;1.57;1.00;;;;;;;37.62;23.56;99298.05;4369799;80;28531;-82
2022/06/12 15:04:48;;;;;;;1.50;1.05;;;;;;;37.34;23.43;99286.56;4363615;80;28537;-83
2022/06/12 15:10:49;;;;;;;1.22;1.10;;;;;;;36.71;24.10;99302.58;4378805;80;28493;-83
2022/06/12 15:16:51;;;;;;;3.17;1.00;;;;;;;36.21;23.11;99301.41;4387542;80;28451;-81
2022/06/12 15:22:52;;;;;;;2.55;1.30;;;;;;;35.59;23.74;99292.95;4376392;80;28538;-80
2022/06/12 15:35:18;;;;;;;2.12;1.40;;;;;;;34.91;25.66;99283.65;4376817;79;28527;-80
2022/06/12 15:41:23;;;;;;;1.75;1.62;;;;;;;34.64;26.37;99270.54;4406209;79;28531;-79
2022/06/12 15:47:25;;;;;;;1.67;1.50;;;;;;;33.93;27.61;99276.75;4374297;80;28464;-83
2022/06/12 15:53:29;;;;;;;3.17;1.32;;;;;;;34.08;27.58;99267.73;4384056;79;28553;-79
2022/06/12 15:59:35;;;;;;;2.83;1.52;;;;;;;34.87;27.18;99264.69;4392274;79;28543;-80
2022/06/12 16:05:37;;;;;;;2.58;1.47;;;;;;;34.15;27.48;99260.22;4395309;79;28508;-80
2022/06/12 16:11:40;;;;;;;1.55;1.40;;;;;;;34.78;26.93;99250.28;4394159;79;28531;-78
2022/06/12 16:17:41;;;;;;;2.25;1.45;;;;;;;34.70;26.84;99241.08;4401427;79;28455;-77
2022/06/12 16:23:43;;;;;;;2.10;1.50;;;;;;;34.82;27.22;99242.71;4390699;80;28514;-82
2022/06/12 16:29:44;;;;;;;2.92;1.40;;;;;;;34.40;27.86;99237.27;4406015;79;28455;-81
2022/06/12 16:35:48;;;;;;;2.08;1.42;;;;;;;34.42;27.91;99230.73;4389640;80;28547;-80
2022/06/12 16:41:49;;;;;;;3.22;1.50;;;;;;;34.39;28.06;99228.70;4388631;79;28506;-81
2022/06/12 16:47:53;;;;;;;2.87;1.32;;;;;;;35.15;27.44;99227.72;4416233;79;28512;-80
2022/06/12 16:53:56;;;;;;;2.27;1.40;;;;;;;35.26;27.21;99230.55;4399062;79;28468;-78
2022/06/12 16:59:59;;;;;;;1.65;1.40;;;;;;;36.20;26.12;99224.88;4389092;79;28585;-77
2022/06/12 17:06:01;;;;;;;2.87;1.50;;;;;;;37.09;25.51;99225.84;4401145;79;28494;-76
2022/06/12 17:12:06;;;;;;;2.75;1.37;;;;;;;37.23;24.82;99215.75;4391291;80;28511;-78
2022/06/12 17:24:32;;;;;;;1.45;1.20;;;;;;;36.48;25.58;99211.42;4357651;79;28568;-79
2022/06/12 17:30:34;;;;;;;3.92;1.40;;;;;;;36.91;25.11;99209.69;4278334;82;28543;-76
2022/06/12 17:36:35;;;;;;;1.62;1.45;;;;;;;36.63;25.10;99214.20;4385054;79;28531;-76
2022/06/12 17:42:40;;;;;;;3.37;1.50;;;;;;;36.51;24.96;99214.02;4403764;79;28463;-77
2022/06/12 17:48:42;;;;;;;1.87;1.27;;;;;;;36.58;25.21;99208.41;4379734;80;28519;-76
2022/06/12 17:54:46;;;;;;;4.37;1.70;;;;;;;36.72;25.37;99198.38;4384299;79;28547;-76
2022/06/12 18:00:49;;;;;;;2.30;1.50;;;;;;;36.54;26.49;99214.60;4359872;79;28535;-77
2022/06/12 18:06:50;;;;;;;2.72;1.67;;;;;;;36.48;25.87;99215.62;4382401;79;28598;-76
2022/06/12 18:12:52;;;;;;;3.67;1.65;;;;;;;35.99;26.24;99213.88;4410554;79;28539;-75
2022/06/12 18:19:04;;;;;;;2.92;2.20;;;;;;;35.74;27.25;99210.47;4394185;79;28479;-81
2022/06/12 18:25:07;;;;;;;2.45;2.02;;;;;;;35.37;27.13;99215.81;4406712;79;28539;-83
2022/06/12 18:31:09;;;;;;;3.45;1.80;;;;;;;35.10;27.81;99210.54;4370265;80;28535;-89
2022/06/12 18:37:11;;;;;;;4.40;1.90;;;;;;;34.75;28.33;99206.60;4429898;79;28586;-85
2022/06/12 18:43:13;;;;;;;4.00;2.22;;;;;;;34.10;31.47;99211.75;4387650;80;28559;-86
2022/06/12 18:49:15;;;;;;;5.10;2.12;;;;;;;33.82;31.74;99213.70;4387529;80;28511;-86
2022/06/12 18:55:23;;;;;;;4.83;2.05;;;;;;;33.05;33.41;99222.66;4401634;79;28503;-83
2022/06/12 19:01:25;;;;;;;5.62;1.90;;;;;;;32.65;33.43;99219.96;4376394;80;28492;-88
2022/06/12 19:07:26;;;;;;;5.62;2.10;;;;;;;32.19;34.08;99217.48;4404109;79;28518;-89
2022/06/12 19:13:30;;;;;;;5.12;2.55;;;;;;;32.11;34.78;99238.00;4374906;81;28527;-89
2022/06/12 19:19:31;;;;;;;3.35;2.62;;;;;;;30.18;37.51;99238.87;4399581;79;28500;-80
2022/06/12 19:25:33;;;;;;;6.12;2.77;;;;;;;31.22;35.68;99234.00;4415906;79;28514;-89
2022/06/12 19:31:34;;;;;;;6.25;2.70;;;;;;;30.65;36.56;99226.11;4407259;79;28511;-88
2022/06/12 19:37:38;;;;;;;3.90;2.70;;;;;;;30.44;36.72;99226.38;4404647;80;28423;-89
2022/06/12 19:43:40;;;;;;;5.75;2.90;;;;;;;30.19;37.61;99236.32;4393360;80;28503;-87
2022/06/12 19:49:42;;;;;;;6.92;3.17;;;;;;;30.05;37.66;99241.75;4398219;79;28491;-87
2022/06/12 19:55:44;;;;;;;9.23;4.10;;;;;;;29.81;38.49;99231.61;4404629;79;28513;-87
2022/06/12 20:01:50;;;;;;;4.20;3.30;;;;;;;29.62;38.81;99238.64;4394418;80;28449;-86
2022/06/12 20:07:51;;;;;;;8.38;3.25;;;;;;;29.39;39.12;99231.46;4430359;79;28508;-90
2022/06/12 20:13:53;;;;;;;6.08;3.52;;;;;;;29.08;40.73;99219.14;4413761;79;28526;-88
2022/06/12 20:19:55;;;;;;;4.50;3.50;;;;;;;28.98;41.44;99220.46;4345536;81;28492;-89
2022/06/12 20:25:57;;;;;;;5.12;3.60;;;;;;;28.88;41.46;99216.80;4335410;81;28494;-87
2022/06/12 20:32:00;;;;;;;6.00;3.50;;;;;;;28.65;42.51;99229.75;4335090;81;28500;-87
2022/06/12 20:38:02;;;;;;;6.12;4.17;;;;;;;28.80;42.00;99229.00;4329164;81;28470;-91
2022/06/12 20:44:08;;;;;;;7.00;3.65;;;;;;;28.90;41.94;99224.98;4352542;81;28535;-91
2022/06/12 20:50:16;;;;;;;5.15;4.05;;;;;;;28.82;41.98;99228.69;4328927;81;28517;-89
2022/06/12 20:56:19;;;;;;;6.62;4.28;;;;;;;28.47;43.01;99243.00;4298440;81;28506;-89
2022/06/12 21:02:20;;;;;;;5.00;4.25;;;;;;;28.21;44.03;99249.70;4338906;81;28498;-88
2022/06/12 21:08:22;;;;;;;5.45;4.20;;;;;;;28.04;44.18;99250.11;4335822;81;28538;-89
2022/06/12 21:14:25;;;;;;;7.12;4.47;;;;;;;27.89;45.46;99255.73;4333234;81;28528;-89
2022/06/12 21:20:27;;;;;;;6.65;4.60;;;;;;;27.97;45.29;99251.28;4332038;81;28496;-90
2022/06/12 21:26:31;;;;;;;6.90;5.17;;;;;;;28.18;43.91;99249.81;4288916;81;28521;-89
2022/06/12 21:32:32;;;;;;;6.95;5.12;;;;;;;27.83;45.27;99244.69;4336710;81;28582;-88
2022/06/12 21:38:34;;;;;;;4.75;4.25;;;;;;;27.60;46.04;99243.73;4333868;81;28453;-89
2022/06/12 21:44:36;;;;;;;5.75;4.40;;;;;;;27.40;46.11;99237.06;4322492;81;28540;-90
2022/06/12 21:50:38;;;;;;;7.87;5.33;;;;;;;27.26;47.30;99240.94;4330875;81;28478;-88
2022/06/12 21:56:40;;;;;;;5.20;4.17;;;;;;;27.47;46.59;99237.33;4334302;81;28506;-89
2022/06/12 22:02:41;;;;;;;7.78;4.42;;;;;;;27.17;47.31;99233.30;4394924;79;28487;-90
2022/06/12 22:08:44;;;;;;;6.45;4.60;;;;;;;26.95;47.25;99226.17;4399796;79;28538;-86
2022/06/12 22:14:46;;;;;;;6.70;4.15;;;;;;;26.95;46.80;99218.72;4394808;80;28505;-86
2022/06/12 22:20:47;;;;;;;5.80;4.28;;;;;;;26.79;48.26;99221.80;4406466;79;28479;-87
2022/06/12 22:26:49;;;;;;;6.40;4.50;;;;;;;27.09;47.13;99225.91;4391651;80;28486;-86
2022/06/12 22:32:51;;;;;;;7.33;4.92;;;;;;;27.09;46.67;99219.83;4384692;80;28509;-86
2022/06/12 22:38:52;;;;;;;7.15;4.22;;;;;;;26.80;47.61;99220.10;4419175;80;28489;-89
2022/06/12 22:44:54;;;;;;;6.15;4.45;;;;;;;26.59;47.64;99207.67;4393068;80;28478;-88
2022/06/12 22:50:55;;;;;;;4.95;4.05;;;;;;;26.24;48.64;99208.72;4374100;80;28506;-90
2022/06/12 22:56:56;;;;;;;6.35;4.87;;;;;;;26.23;49.86;99204.91;4429342;80;28546;-90
2022/06/12 23:02:58;;;;;;;5.30;4.42;;;;;;;26.14;49.67;99211.23;4364983;81;28499;-89
2022/06/12 23:08:59;;;;;;;8.98;4.85;;;;;;;26.01;49.90;99196.54;4377532;80;28470;-89
2022/06/12 23:15:01;;;;;;;7.20;4.72;;;;;;;25.77;49.89;99194.38;4367931;80;28471;-89
2022/06/12 23:21:03;;;;;;;6.78;4.37;;;;;;;26.06;50.05;99194.17;4400903;80;28541;-92
2022/06/12 23:27:04;;;;;;;5.67;4.45;;;;;;;26.07;49.70;99186.73;4397588;79;28520;-90
2022/06/12 23:33:06;;;;;;;6.67;4.78;;;;;;;25.93;49.43;99180.06;4391760;81;28496;-89
2022/06/12 23:39:07;;;;;;;6.25;4.85;;;;;;;25.78;50.02;99182.25;4420690;80;28481;-89
2022/06/12 23:45:09;;;;;;;6.75;4.37;;;;;;;25.57;51.18;99177.45;4368170;81;28509;-88
2022/06/12 23:51:11;;;;;;;7.03;4.20;;;;;;;25.47;51.57;99165.40;4402809;80;28519;-90
2022/06/12 23:57:13;;;;;;;5.67;4.25;;;;;;;25.30;51.84;99167.60;4410507;79;28518;-89
